sensor_id;sensor_type;location;lat;lon;timestamp;P1;durP1;ratioP1;P2;durP2;ratioP2
22814;SDS011;11574;51.058;13.712;2023-06-19T00:02:18;10.10;;;7.10;;
22814;SDS011;11574;51.058;13.712;2023-06-19T00:07:21;10.80;;;7.67;;
22814;SDS011;11574;51.058;13.712;2023-06-19T00:12:23;9.40;;;7.23;;
22814;SDS011;11574;51.058;13.712;2023-06-19T00:17:27;9.97;;;7.43;;
22814;SDS011;11574;51.058;13.712;2023-06-19T00:22:29;11.27;;;7.00;;
22814;SDS011;11574;51.058;13.712;2023-06-19T00:27:31;9.13;;;7.60;;
22814;SDS011;11574;51.058;13.712;2023-06-19T00:32:35;9.57;;;7.43;;
22814;SDS011;11574;51.058;13.712;2023-06-19T00:37:46;9.27;;;7.17;;
22814;SDS011;11574;51.058;13.712;2023-06-19T00:42:49;9.07;;;7.27;;
22814;SDS011;11574;51.058;13.712;2023-06-19T00:47:53;9.70;;;7.50;;
22814;SDS011;11574;51.058;13.712;2023-06-19T00:52:56;10.57;;;7.73;;
22814;SDS011;11574;51.058;13.712;2023-06-19T00:57:58;9.87;;;7.80;;
22814;SDS011;11574;51.058;13.712;2023-06-19T01:03:02;8.43;;;7.40;;
22814;SDS011;11574;51.058;13.712;2023-06-19T01:08:07;10.07;;;7.27;;
22814;SDS011;11574;51.058;13.712;2023-06-19T01:13:12;8.10;;;7.23;;
22814;SDS011;11574;51.058;13.712;2023-06-19T01:18:18;11.20;;;7.60;;
22814;SDS011;11574;51.058;13.712;2023-06-19T01:23:22;11.57;;;7.97;;
22814;SDS011;11574;51.058;13.712;2023-06-19T01:28:24;15.80;;;8.60;;
22814;SDS011;11574;51.058;13.712;2023-06-19T01:33:27;11.43;;;8.03;;
22814;SDS011;11574;51.058;13.712;2023-06-19T01:38:31;8.90;;;8.00;;
22814;SDS011;11574;51.058;13.712;2023-06-19T01:43:34;13.03;;;7.67;;
22814;SDS011;11574;51.058;13.712;2023-06-19T01:48:37;11.87;;;8.30;;
22814;SDS011;11574;51.058;13.712;2023-06-19T01:53:41;10.40;;;8.50;;
22814;SDS011;11574;51.058;13.712;2023-06-19T01:58:43;10.53;;;8.30;;
22814;SDS011;11574;51.058;13.712;2023-06-19T02:03:45;11.90;;;8.13;;
22814;SDS011;11574;51.058;13.712;2023-06-19T02:08:49;11.10;;;8.77;;
22814;SDS011;11574;51.058;13.712;2023-06-19T02:13:51;8.77;;;7.80;;
22814;SDS011;11574;51.058;13.712;2023-06-19T02:18:53;10.47;;;7.83;;
22814;SDS011;11574;51.058;13.712;2023-06-19T02:23:57;10.20;;;8.27;;
22814;SDS011;11574;51.058;13.712;2023-06-19T02:28:59;12.80;;;8.40;;
22814;SDS011;11574;51.058;13.712;2023-06-19T02:34:01;11.87;;;8.50;;
22814;SDS011;11574;51.058;13.712;2023-06-19T02:39:05;9.70;;;8.10;;
22814;SDS011;11574;51.058;13.712;2023-06-19T02:44:07;10.93;;;8.70;;
22814;SDS011;11574;51.058;13.712;2023-06-19T02:49:09;13.63;;;8.80;;
22814;SDS011;11574;51.058;13.712;2023-06-19T02:54:13;11.03;;;8.13;;
22814;SDS011;11574;51.058;13.712;2023-06-19T02:59:15;9.73;;;8.43;;
22814;SDS011;11574;51.058;13.712;2023-06-19T03:04:17;9.40;;;7.80;;
22814;SDS011;11574;51.058;13.712;2023-06-19T03:09:21;10.07;;;8.43;;
22814;SDS011;11574;51.058;13.712;2023-06-19T03:14:23;12.43;;;8.57;;
22814;SDS011;11574;51.058;13.712;2023-06-19T03:19:25;9.57;;;8.30;;
22814;SDS011;11574;51.058;13.712;2023-06-19T03:24:29;13.10;;;8.43;;
22814;SDS011;11574;51.058;13.712;2023-06-19T03:29:31;10.53;;;8.20;;
22814;SDS011;11574;51.058;13.712;2023-06-19T03:34:33;12.07;;;8.17;;
22814;SDS011;11574;51.058;13.712;2023-06-19T03:39:37;9.67;;;7.90;;
22814;SDS011;11574;51.058;13.712;2023-06-19T03:44:39;11.00;;;8.70;;
22814;SDS011;11574;51.058;13.712;2023-06-19T03:49:41;11.10;;;8.63;;
22814;SDS011;11574;51.058;13.712;2023-06-19T03:54:45;14.63;;;8.67;;
22814;SDS011;11574;51.058;13.712;2023-06-19T03:59:47;13.47;;;7.87;;
22814;SDS011;11574;51.058;13.712;2023-06-19T04:04:50;9.80;;;8.03;;
22814;SDS011;11574;51.058;13.712;2023-06-19T04:09:53;11.13;;;8.33;;
22814;SDS011;11574;51.058;13.712;2023-06-19T04:14:55;11.47;;;7.83;;
22814;SDS011;11574;51.058;13.712;2023-06-19T04:19:58;12.30;;;8.20;;
22814;SDS011;11574;51.058;13.712;2023-06-19T04:25:02;9.43;;;8.30;;
22814;SDS011;11574;51.058;13.712;2023-06-19T04:30:04;8.87;;;7.00;;
22814;SDS011;11574;51.058;13.712;2023-06-19T04:35:07;8.13;;;7.23;;
22814;SDS011;11574;51.058;13.712;2023-06-19T04:40:11;12.60;;;7.13;;
22814;SDS011;11574;51.058;13.712;2023-06-19T04:45:13;9.27;;;7.00;;
22814;SDS011;11574;51.058;13.712;2023-06-19T04:50:16;10.33;;;7.67;;
22814;SDS011;11574;51.058;13.712;2023-06-19T04:55:19;11.63;;;7.37;;
22814;SDS011;11574;51.058;13.712;2023-06-19T05:00:21;10.03;;;8.17;;
22814;SDS011;11574;51.058;13.712;2023-06-19T05:05:25;10.97;;;7.17;;
22814;SDS011;11574;51.058;13.712;2023-06-19T05:10:28;9.47;;;7.00;;
22814;SDS011;11574;51.058;13.712;2023-06-19T05:15:30;10.50;;;8.17;;
22814;SDS011;11574;51.058;13.712;2023-06-19T05:20:32;9.40;;;7.93;;
22814;SDS011;11574;51.058;13.712;2023-06-19T05:25:37;9.00;;;7.23;;
22814;SDS011;11574;51.058;13.712;2023-06-19T05:30:40;9.47;;;7.67;;
22814;SDS011;11574;51.058;13.712;2023-06-19T05:35:42;10.73;;;7.60;;
22814;SDS011;11574;51.058;13.712;2023-06-19T05:40:52;11.57;;;7.30;;
22814;SDS011;11574;51.058;13.712;2023-06-19T05:45:54;12.63;;;8.13;;
22814;SDS011;11574;51.058;13.712;2023-06-19T05:50:58;10.00;;;7.60;;
22814;SDS011;11574;51.058;13.712;2023-06-19T05:56:02;10.20;;;7.50;;
22814;SDS011;11574;51.058;13.712;2023-06-19T06:01:05;10.73;;;7.73;;
22814;SDS011;11574;51.058;13.712;2023-06-19T06:06:07;10.07;;;7.47;;
22814;SDS011;11574;51.058;13.712;2023-06-19T06:11:11;11.57;;;7.00;;
22814;SDS011;11574;51.058;13.712;2023-06-19T06:16:13;14.00;;;7.83;;
22814;SDS011;11574;51.058;13.712;2023-06-19T06:21:15;11.07;;;7.50;;
22814;SDS011;11574;51.058;13.712;2023-06-19T06:26:19;10.43;;;8.00;;
22814;SDS011;11574;51.058;13.712;2023-06-19T06:31:21;10.17;;;7.70;;
22814;SDS011;11574;51.058;13.712;2023-06-19T06:36:24;10.77;;;7.40;;
22814;SDS011;11574;51.058;13.712;2023-06-19T06:41:27;13.57;;;7.07;;
22814;SDS011;11574;51.058;13.712;2023-06-19T06:46:30;9.73;;;7.40;;
22814;SDS011;11574;51.058;13.712;2023-06-19T06:51:32;8.97;;;7.23;;
22814;SDS011;11574;51.058;13.712;2023-06-19T06:56:35;11.97;;;7.60;;
22814;SDS011;11574;51.058;13.712;2023-06-19T07:01:37;10.60;;;7.40;;
22814;SDS011;11574;51.058;13.712;2023-06-19T07:06:40;10.27;;;7.40;;
22814;SDS011;11574;51.058;13.712;2023-06-19T07:11:43;12.43;;;6.97;;
22814;SDS011;11574;51.058;13.712;2023-06-19T07:16:45;10.90;;;7.57;;
22814;SDS011;11574;51.058;13.712;2023-06-19T07:21:49;13.33;;;7.10;;
22814;SDS011;11574;51.058;13.712;2023-06-19T07:26:52;12.70;;;7.60;;
22814;SDS011;11574;51.058;13.712;2023-06-19T07:31:56;10.17;;;7.07;;
22814;SDS011;11574;51.058;13.712;2023-06-19T07:36:58;10.50;;;6.93;;
22814;SDS011;11574;51.058;13.712;2023-06-19T07:42:02;12.03;;;7.13;;
22814;SDS011;11574;51.058;13.712;2023-06-19T07:47:04;8.20;;;6.43;;
22814;SDS011;11574;51.058;13.712;2023-06-19T07:52:07;8.20;;;6.97;;
22814;SDS011;11574;51.058;13.712;2023-06-19T07:57:12;9.70;;;6.97;;
22814;SDS011;11574;51.058;13.712;2023-06-19T08:02:14;9.57;;;6.73;;
22814;SDS011;11574;51.058;13.712;2023-06-19T08:07:16;7.77;;;6.60;;
22814;SDS011;11574;51.058;13.712;2023-06-19T08:12:19;10.37;;;6.80;;
22814;SDS011;11574;51.058;13.712;2023-06-19T08:17:22;7.80;;;6.33;;
22814;SDS011;11574;51.058;13.712;2023-06-19T08:22:24;10.23;;;6.90;;
22814;SDS011;11574;51.058;13.712;2023-06-19T08:27:27;8.30;;;6.60;;
22814;SDS011;11574;51.058;13.712;2023-06-19T08:32:30;13.33;;;6.57;;
22814;SDS011;11574;51.058;13.712;2023-06-19T08:37:32;12.17;;;7.67;;
22814;SDS011;11574;51.058;13.712;2023-06-19T08:42:35;12.03;;;6.70;;
22814;SDS011;11574;51.058;13.712;2023-06-19T08:47:39;9.97;;;6.73;;
22814;SDS011;11574;51.058;13.712;2023-06-19T08:52:41;9.70;;;6.90;;
22814;SDS011;11574;51.058;13.712;2023-06-19T08:57:44;10.83;;;7.23;;
22814;SDS011;11574;51.058;13.712;2023-06-19T09:02:49;14.63;;;7.30;;
22814;SDS011;11574;51.058;13.712;2023-06-19T09:07:55;9.13;;;6.90;;
22814;SDS011;11574;51.058;13.712;2023-06-19T09:12:59;10.97;;;6.73;;
22814;SDS011;11574;51.058;13.712;2023-06-19T09:18:02;14.17;;;7.50;;
22814;SDS011;11574;51.058;13.712;2023-06-19T09:23:05;10.80;;;7.30;;
22814;SDS011;11574;51.058;13.712;2023-06-19T09:28:16;11.47;;;7.90;;
22814;SDS011;11574;51.058;13.712;2023-06-19T09:33:18;13.43;;;7.33;;
22814;SDS011;11574;51.058;13.712;2023-06-19T09:38:21;13.93;;;7.27;;
22814;SDS011;11574;51.058;13.712;2023-06-19T09:43:29;11.03;;;7.60;;
22814;SDS011;11574;51.058;13.712;2023-06-19T09:48:32;11.60;;;7.63;;
22814;SDS011;11574;51.058;13.712;2023-06-19T09:53:35;10.03;;;6.90;;
22814;SDS011;11574;51.058;13.712;2023-06-19T09:58:39;12.53;;;7.50;;
22814;SDS011;11574;51.058;13.712;2023-06-19T10:03:43;14.03;;;7.40;;
22814;SDS011;11574;51.058;13.712;2023-06-19T10:08:45;12.57;;;7.33;;
22814;SDS011;11574;51.058;13.712;2023-06-19T10:13:49;13.40;;;7.67;;
22814;SDS011;11574;51.058;13.712;2023-06-19T10:18:51;10.80;;;8.07;;
22814;SDS011;11574;51.058;13.712;2023-06-19T10:23:54;9.20;;;7.80;;
22814;SDS011;11574;51.058;13.712;2023-06-19T10:28:58;11.90;;;7.23;;
22814;SDS011;11574;51.058;13.712;2023-06-19T10:34:00;9.60;;;7.20;;
22814;SDS011;11574;51.058;13.712;2023-06-19T10:39:05;11.63;;;7.50;;
22814;SDS011;11574;51.058;13.712;2023-06-19T10:44:08;15.30;;;7.97;;
22814;SDS011;11574;51.058;13.712;2023-06-19T10:49:12;10.70;;;7.20;;
22814;SDS011;11574;51.058;13.712;2023-06-19T10:54:14;10.37;;;6.97;;
22814;SDS011;11574;51.058;13.712;2023-06-19T10:59:18;9.95;;;7.13;;
22814;SDS011;11574;51.058;13.712;2023-06-19T11:04:20;8.10;;;7.25;;
22814;SDS011;11574;51.058;13.712;2023-06-19T11:09:23;12.25;;;7.32;;
22814;SDS011;11574;51.058;13.712;2023-06-19T11:14:29;11.88;;;7.07;;
22814;SDS011;11574;51.058;13.712;2023-06-19T11:19:32;9.02;;;7.32;;
22814;SDS011;11574;51.058;13.712;2023-06-19T11:24:34;8.38;;;6.93;;
22814;SDS011;11574;51.058;13.712;2023-06-19T11:29:38;11.10;;;6.88;;
22814;SDS011;11574;51.058;13.712;2023-06-19T11:34:40;13.10;;;6.95;;
22814;SDS011;11574;51.058;13.712;2023-06-19T11:39:44;8.55;;;6.88;;
22814;SDS011;11574;51.058;13.712;2023-06-19T11:44:54;8.40;;;6.85;;
22814;SDS011;11574;51.058;13.712;2023-06-19T11:49:57;8.57;;;7.20;;
22814;SDS011;11574;51.058;13.712;2023-06-19T11:55:00;9.48;;;7.03;;
22814;SDS011;11574;51.058;13.712;2023-06-19T12:00:04;6.22;;;5.60;;
22814;SDS011;11574;51.058;13.712;2023-06-19T12:05:09;10.05;;;6.70;;
22814;SDS011;11574;51.058;13.712;2023-06-19T12:10:12;9.05;;;6.35;;
22814;SDS011;11574;51.058;13.712;2023-06-19T12:15:15;10.57;;;6.63;;
22814;SDS011;11574;51.058;13.712;2023-06-19T12:20:17;6.95;;;6.25;;
22814;SDS011;11574;51.058;13.712;2023-06-19T12:25:20;8.40;;;6.38;;
22814;SDS011;11574;51.058;13.712;2023-06-19T12:30:23;8.25;;;6.25;;
22814;SDS011;11574;51.058;13.712;2023-06-19T12:35:25;8.15;;;5.68;;
22814;SDS011;11574;51.058;13.712;2023-06-19T12:40:28;6.03;;;5.40;;
22814;SDS011;11574;51.058;13.712;2023-06-19T12:45:31;5.85;;;5.25;;
22814;SDS011;11574;51.058;13.712;2023-06-19T12:50:34;8.35;;;5.50;;
22814;SDS011;11574;51.058;13.712;2023-06-19T12:55:36;9.38;;;5.15;;
22814;SDS011;11574;51.058;13.712;2023-06-19T13:00:39;6.43;;;5.20;;
22814;SDS011;11574;51.058;13.712;2023-06-19T13:05:42;8.20;;;5.70;;
22814;SDS011;11574;51.058;13.712;2023-06-19T13:10:44;8.13;;;6.20;;
22814;SDS011;11574;51.058;13.712;2023-06-19T13:15:47;6.88;;;6.10;;
22814;SDS011;11574;51.058;13.712;2023-06-19T13:20:49;7.47;;;6.00;;
22814;SDS011;11574;51.058;13.712;2023-06-19T13:25:52;10.85;;;6.20;;
22814;SDS011;11574;51.058;13.712;2023-06-19T13:30:55;10.73;;;6.72;;
22814;SDS011;11574;51.058;13.712;2023-06-19T13:35:57;10.07;;;6.70;;
22814;SDS011;11574;51.058;13.712;2023-06-19T13:40:59;8.13;;;6.60;;
22814;SDS011;11574;51.058;13.712;2023-06-19T13:46:03;8.73;;;6.70;;
22814;SDS011;11574;51.058;13.712;2023-06-19T13:51:06;10.20;;;7.72;;
22814;SDS011;11574;51.058;13.712;2023-06-19T13:56:08;10.98;;;6.95;;
22814;SDS011;11574;51.058;13.712;2023-06-19T14:01:14;13.90;;;8.05;;
22814;SDS011;11574;51.058;13.712;2023-06-19T14:06:17;10.32;;;7.10;;
22814;SDS011;11574;51.058;13.712;2023-06-19T14:11:19;11.55;;;7.60;;
22814;SDS011;11574;51.058;13.712;2023-06-19T14:16:23;9.48;;;7.95;;
22814;SDS011;11574;51.058;13.712;2023-06-19T14:21:25;14.73;;;7.97;;
22814;SDS011;11574;51.058;13.712;2023-06-19T14:26:27;8.00;;;7.20;;
22814;SDS011;11574;51.058;13.712;2023-06-19T14:31:31;8.50;;;7.63;;
22814;SDS011;11574;51.058;13.712;2023-06-19T14:36:33;9.00;;;7.63;;
22814;SDS011;11574;51.058;13.712;2023-06-19T14:41:36;9.25;;;8.02;;
22814;SDS011;11574;51.058;13.712;2023-06-19T14:46:39;11.25;;;7.60;;
22814;SDS011;11574;51.058;13.712;2023-06-19T14:51:42;8.15;;;7.22;;
22814;SDS011;11574;51.058;13.712;2023-06-19T14:56:44;8.82;;;7.43;;
22814;SDS011;11574;51.058;13.712;2023-06-19T15:01:50;11.25;;;8.07;;
22814;SDS011;11574;51.058;13.712;2023-06-19T15:06:52;11.57;;;8.20;;
22814;SDS011;11574;51.058;13.712;2023-06-19T15:11:56;12.32;;;7.93;;
22814;SDS011;11574;51.058;13.712;2023-06-19T15:16:59;11.43;;;7.72;;
22814;SDS011;11574;51.058;13.712;2023-06-19T15:22:01;8.90;;;8.00;;
22814;SDS011;11574;51.058;13.712;2023-06-19T15:27:04;12.90;;;8.32;;
22814;SDS011;11574;51.058;13.712;2023-06-19T15:32:07;12.63;;;10.32;;
22814;SDS011;11574;51.058;13.712;2023-06-19T15:37:10;12.13;;;8.25;;
22814;SDS011;11574;51.058;13.712;2023-06-19T15:42:12;8.98;;;7.78;;
22814;SDS011;11574;51.058;13.712;2023-06-19T15:47:15;9.85;;;8.57;;
22814;SDS011;11574;51.058;13.712;2023-06-19T15:52:18;9.82;;;8.05;;
22814;SDS011;11574;51.058;13.712;2023-06-19T15:57:20;13.82;;;9.82;;
22814;SDS011;11574;51.058;13.712;2023-06-19T16:02:24;18.00;;;9.73;;
22814;SDS011;11574;51.058;13.712;2023-06-19T16:07:26;12.57;;;8.20;;
22814;SDS011;11574;51.058;13.712;2023-06-19T16:12:28;10.07;;;7.30;;
22814;SDS011;11574;51.058;13.712;2023-06-19T16:17:32;9.27;;;7.50;;
22814;SDS011;11574;51.058;13.712;2023-06-19T16:22:34;11.43;;;7.30;;
22814;SDS011;11574;51.058;13.712;2023-06-19T16:27:36;9.13;;;7.63;;
22814;SDS011;11574;51.058;13.712;2023-06-19T16:32:40;8.10;;;7.30;;
22814;SDS011;11574;51.058;13.712;2023-06-19T16:37:42;8.95;;;7.30;;
22814;SDS011;11574;51.058;13.712;2023-06-19T16:42:44;11.00;;;7.15;;
22814;SDS011;11574;51.058;13.712;2023-06-19T16:47:48;10.63;;;7.60;;
22814;SDS011;11574;51.058;13.712;2023-06-19T16:52:50;8.77;;;7.90;;
22814;SDS011;11574;51.058;13.712;2023-06-19T16:57:52;9.15;;;6.95;;
22814;SDS011;11574;51.058;13.712;2023-06-19T17:02:56;9.07;;;7.85;;
22814;SDS011;11574;51.058;13.712;2023-06-19T17:07:59;7.30;;;6.60;;
22814;SDS011;11574;51.058;13.712;2023-06-19T17:13:01;11.93;;;7.22;;
22814;SDS011;11574;51.058;13.712;2023-06-19T17:18:05;9.68;;;6.50;;
22814;SDS011;11574;51.058;13.712;2023-06-19T17:23:07;10.55;;;7.10;;
22814;SDS011;11574;51.058;13.712;2023-06-19T17:28:09;12.45;;;7.22;;
22814;SDS011;11574;51.058;13.712;2023-06-19T17:33:13;9.40;;;7.30;;
22814;SDS011;11574;51.058;13.712;2023-06-19T17:38:15;9.20;;;7.20;;
22814;SDS011;11574;51.058;13.712;2023-06-19T17:43:17;8.90;;;7.32;;
22814;SDS011;11574;51.058;13.712;2023-06-19T17:48:21;11.88;;;7.85;;
22814;SDS011;11574;51.058;13.712;2023-06-19T17:53:23;9.50;;;6.97;;
22814;SDS011;11574;51.058;13.712;2023-06-19T17:58:25;10.80;;;7.53;;
22814;SDS011;11574;51.058;13.712;2023-06-19T18:03:30;9.38;;;7.45;;
22814;SDS011;11574;51.058;13.712;2023-06-19T18:08:32;11.73;;;9.13;;
22814;SDS011;11574;51.058;13.712;2023-06-19T18:13:34;10.85;;;8.18;;
22814;SDS011;11574;51.058;13.712;2023-06-19T18:18:38;11.80;;;9.23;;
22814;SDS011;11574;51.058;13.712;2023-06-19T18:23:40;12.80;;;8.45;;
22814;SDS011;11574;51.058;13.712;2023-06-19T18:28:42;8.43;;;7.53;;
22814;SDS011;11574;51.058;13.712;2023-06-19T18:33:46;12.73;;;9.38;;
22814;SDS011;11574;51.058;13.712;2023-06-19T18:38:51;9.48;;;8.45;;
22814;SDS011;11574;51.058;13.712;2023-06-19T18:43:53;10.88;;;8.55;;
22814;SDS011;11574;51.058;13.712;2023-06-19T18:48:57;15.73;;;8.02;;
22814;SDS011;11574;51.058;13.712;2023-06-19T18:53:59;12.30;;;8.70;;
22814;SDS011;11574;51.058;13.712;2023-06-19T18:59:01;15.25;;;9.18;;
22814;SDS011;11574;51.058;13.712;2023-06-19T19:04:05;11.50;;;9.10;;
22814;SDS011;11574;51.058;13.712;2023-06-19T19:09:07;14.70;;;10.27;;
22814;SDS011;11574;51.058;13.712;2023-06-19T19:14:09;14.18;;;10.05;;
22814;SDS011;11574;51.058;13.712;2023-06-19T19:19:12;12.23;;;9.73;;
22814;SDS011;11574;51.058;13.712;2023-06-19T19:24:15;16.17;;;10.57;;
22814;SDS011;11574;51.058;13.712;2023-06-19T19:29:17;17.33;;;10.70;;
22814;SDS011;11574;51.058;13.712;2023-06-19T19:34:20;13.18;;;10.75;;
22814;SDS011;11574;51.058;13.712;2023-06-19T19:39:24;16.77;;;11.52;;
22814;SDS011;11574;51.058;13.712;2023-06-19T19:44:26;15.10;;;10.30;;
22814;SDS011;11574;51.058;13.712;2023-06-19T19:49:30;14.23;;;11.05;;
22814;SDS011;11574;51.058;13.712;2023-06-19T19:54:32;18.60;;;10.93;;
22814;SDS011;11574;51.058;13.712;2023-06-19T19:59:34;13.27;;;11.13;;
22814;SDS011;11574;51.058;13.712;2023-06-19T20:04:37;15.00;;;10.90;;
22814;SDS011;11574;51.058;13.712;2023-06-19T20:09:40;11.05;;;9.90;;
22814;SDS011;11574;51.058;13.712;2023-06-19T20:14:42;13.55;;;11.18;;
22814;SDS011;11574;51.058;13.712;2023-06-19T20:19:46;14.70;;;11.30;;
22814;SDS011;11574;51.058;13.712;2023-06-19T20:24:48;15.98;;;10.80;;
22814;SDS011;11574;51.058;13.712;2023-06-19T20:29:50;15.07;;;11.35;;
22814;SDS011;11574;51.058;13.712;2023-06-19T20:34:54;13.35;;;10.57;;
22814;SDS011;11574;51.058;13.712;2023-06-19T20:39:56;15.73;;;10.73;;
22814;SDS011;11574;51.058;13.712;2023-06-19T20:45:00;14.70;;;11.13;;
22814;SDS011;11574;51.058;13.712;2023-06-19T20:50:04;13.25;;;10.73;;
22814;SDS011;11574;51.058;13.712;2023-06-19T20:55:07;16.70;;;10.57;;
22814;SDS011;11574;51.058;13.712;2023-06-19T21:00:10;13.27;;;10.65;;
22814;SDS011;11574;51.058;13.712;2023-06-19T21:05:13;16.53;;;11.53;;
22814;SDS011;11574;51.058;13.712;2023-06-19T21:10:16;18.70;;;12.30;;
22814;SDS011;11574;51.058;13.712;2023-06-19T21:15:19;12.07;;;10.50;;
22814;SDS011;11574;51.058;13.712;2023-06-19T21:20:23;12.53;;;10.20;;
22814;SDS011;11574;51.058;13.712;2023-06-19T21:25:25;12.33;;;9.80;;
22814;SDS011;11574;51.058;13.712;2023-06-19T21:30:27;12.83;;;10.63;;
22814;SDS011;11574;51.058;13.712;2023-06-19T21:35:30;13.13;;;11.70;;
22814;SDS011;11574;51.058;13.712;2023-06-19T21:40:33;14.43;;;11.70;;
22814;SDS011;11574;51.058;13.712;2023-06-19T21:45:35;15.47;;;12.43;;
22814;SDS011;11574;51.058;13.712;2023-06-19T21:50:38;14.20;;;11.80;;
22814;SDS011;11574;51.058;13.712;2023-06-19T21:55:41;16.70;;;12.13;;
22814;SDS011;11574;51.058;13.712;2023-06-19T22:00:43;19.43;;;12.13;;
22814;SDS011;11574;51.058;13.712;2023-06-19T22:05:46;13.70;;;11.87;;
22814;SDS011;11574;51.058;13.712;2023-06-19T22:10:49;15.90;;;11.80;;
22814;SDS011;11574;51.058;13.712;2023-06-19T22:15:51;16.30;;;11.50;;
22814;SDS011;11574;51.058;13.712;2023-06-19T22:20:54;20.07;;;12.57;;
22814;SDS011;11574;51.058;13.712;2023-06-19T22:25:57;14.87;;;12.30;;
22814;SDS011;11574;51.058;13.712;2023-06-19T22:30:59;13.37;;;11.97;;
22814;SDS011;11574;51.058;13.712;2023-06-19T22:36:02;12.57;;;11.07;;
22814;SDS011;11574;51.058;13.712;2023-06-19T22:41:05;14.27;;;11.20;;
22814;SDS011;11574;51.058;13.712;2023-06-19T22:46:07;15.93;;;11.40;;
22814;SDS011;11574;51.058;13.712;2023-06-19T22:51:11;15.37;;;11.47;;
22814;SDS011;11574;51.058;13.712;2023-06-19T22:56:13;13.93;;;11.90;;
22814;SDS011;11574;51.058;13.712;2023-06-19T23:01:15;16.73;;;11.40;;
22814;SDS011;11574;51.058;13.712;2023-06-19T23:06:27;14.27;;;11.57;;
22814;SDS011;11574;51.058;13.712;2023-06-19T23:11:29;13.87;;;12.03;;
22814;SDS011;11574;51.058;13.712;2023-06-19T23:16:31;14.70;;;12.27;;
22814;SDS011;11574;51.058;13.712;2023-06-19T23:21:35;15.53;;;11.83;;
22814;SDS011;11574;51.058;13.712;2023-06-19T23:26:37;13.30;;;11.70;;
22814;SDS011;11574;51.058;13.712;2023-06-19T23:31:39;13.43;;;12.03;;
22814;SDS011;11574;51.058;13.712;2023-06-19T23:36:43;15.13;;;11.50;;
22814;SDS011;11574;51.058;13.712;2023-06-19T23:41:45;14.90;;;12.03;;
22814;SDS011;11574;51.058;13.712;2023-06-19T23:46:47;15.73;;;11.97;;
22814;SDS011;11574;51.058;13.712;2023-06-19T23:51:51;17.37;;;12.47;;
22814;SDS011;11574;51.058;13.712;2023-06-19T23:56:53;13.60;;;12.17;;
